createdAt,value
2023-01-26T00:02:47.773Z,1.07
2023-01-26T00:17:47.247Z,1.61
2023-01-26T00:32:47.381Z,1.43
2023-01-26T00:47:47.399Z,1.64
2023-01-26T01:02:48.502Z,1.05
2023-01-26T01:17:51.845Z,1.33
2023-01-26T01:32:47.372Z,0.95
2023-01-26T01:47:47.514Z,1.16
2023-01-26T02:02:47.361Z,1.01
2023-01-26T02:17:47.584Z,1.01
2023-01-26T02:32:49.263Z,1.17
2023-01-26T02:47:47.656Z,0.91
2023-01-26T03:02:47.442Z,0.86
2023-01-26T03:17:47.667Z,0.52
2023-01-26T03:32:47.955Z,0.77
2023-01-26T03:47:47.867Z,1.75
2023-01-26T04:02:47.823Z,1.07
2023-01-26T04:17:48.183Z,0.73
2023-01-26T04:32:47.853Z,1.16
2023-01-26T04:47:47.958Z,1.48
2023-01-26T05:02:48.263Z,1.56
2023-01-26T05:17:48.115Z,1.74
2023-01-26T05:32:48.305Z,1.27
2023-01-26T05:47:48.207Z,1.57
2023-01-26T06:02:48.733Z,1.50
2023-01-26T06:17:48.110Z,0.79
2023-01-26T06:32:48.106Z,0.22
2023-01-26T06:47:48.045Z,0.73
2023-01-26T07:02:48.441Z,0.57
2023-01-26T07:17:48.419Z,0.20
2023-01-26T07:32:48.188Z,0.59
2023-01-26T07:47:48.251Z,1.39
2023-01-26T08:02:48.352Z,1.72
2023-01-26T08:17:48.634Z,1.11
2023-01-26T08:32:48.855Z,1.73
2023-01-26T08:47:48.352Z,1.01
2023-01-26T09:02:48.832Z,1.00
2023-01-26T09:17:48.750Z,1.58
2023-01-26T09:32:48.766Z,0.92
2023-01-26T09:47:48.565Z,0.70
2023-01-26T10:02:48.755Z,0.70
2023-01-26T10:17:48.504Z,1.05
2023-01-26T10:32:48.549Z,1.10
2023-01-26T10:47:48.926Z,1.15
2023-01-26T11:02:48.677Z,1.25
2023-01-26T11:17:48.526Z,1.42
2023-01-26T11:32:48.854Z,1.48
2023-01-26T11:47:48.791Z,1.48
2023-01-26T12:02:48.788Z,1.20
2023-01-26T12:17:48.796Z,1.38
2023-01-26T12:32:48.940Z,1.07
2023-01-26T12:47:48.707Z,1.34
2023-01-26T13:02:48.969Z,0.51
2023-01-26T13:17:48.837Z,1.59
2023-01-26T13:32:48.928Z,1.46
2023-01-26T13:47:49.073Z,0.89
2023-01-26T14:02:49.116Z,0.66
2023-01-26T14:17:49.043Z,0.66
2023-01-26T14:32:48.933Z,0.82
2023-01-26T14:47:49.176Z,1.17
2023-01-26T15:02:49.308Z,0.80
2023-01-26T15:17:49.079Z,0.28
2023-01-26T15:32:49.077Z,0.07
2023-01-26T15:47:49.308Z,0.13
2023-01-26T16:02:49.119Z,0.29
2023-01-26T16:17:49.730Z,0.00
2023-01-26T16:32:49.422Z,0.00
2023-01-26T16:47:49.202Z,0.00
2023-01-26T17:02:49.245Z,0.03
2023-01-26T17:17:49.571Z,0.01
2023-01-26T17:32:49.326Z,0.00
2023-01-26T17:47:49.575Z,0.08
2023-01-26T18:02:49.350Z,0.13
2023-01-26T18:17:49.627Z,0.52
2023-01-26T18:32:49.645Z,0.38
2023-01-26T18:47:49.873Z,0.20
2023-01-26T19:02:49.720Z,0.22
2023-01-26T19:17:49.704Z,0.74
2023-01-26T19:32:49.915Z,0.90
2023-01-26T19:47:49.782Z,0.92
2023-01-26T20:02:49.606Z,1.81
2023-01-26T20:17:49.809Z,1.93
2023-01-26T20:32:50.021Z,1.47
2023-01-26T20:47:55.603Z,1.58
2023-01-26T21:02:49.849Z,1.55
2023-01-26T21:17:50.151Z,1.79
2023-01-26T21:32:50.234Z,1.88
2023-01-26T21:47:50.042Z,1.64
2023-01-26T22:02:50.027Z,1.16
2023-01-26T22:17:50.364Z,2.05
2023-01-26T22:32:50.101Z,2.06
2023-01-26T22:47:50.030Z,2.11
2023-01-26T23:02:50.067Z,1.94
2023-01-26T23:17:50.030Z,1.56
2023-01-26T23:32:51.211Z,1.22
2023-01-26T23:47:50.098Z,1.63
